createdAt,value
2017-12-28T00:00:00.936Z,0
2017-12-28T00:01:11.096Z,0
2017-12-28T00:02:21.307Z,0
2017-12-28T00:03:31.084Z,0
2017-12-28T00:04:41.213Z,0
2017-12-28T00:05:51.084Z,0
2017-12-28T00:07:01.235Z,0
2017-12-28T00:08:11.455Z,0
2017-12-28T00:09:21.651Z,0
2017-12-28T00:10:31.900Z,0
2017-12-28T00:11:42.043Z,0
2017-12-28T00:12:52.217Z,0
2017-12-28T00:14:02.354Z,0
2017-12-28T00:15:12.494Z,0
2017-12-28T00:16:22.626Z,0
2017-12-28T00:17:32.748Z,0
2017-12-28T00:18:43.063Z,0
2017-12-28T00:19:53.270Z,0
2017-12-28T00:21:03.433Z,0
2017-12-28T00:22:13.583Z,0
2017-12-28T00:23:23.800Z,0
2017-12-28T00:24:34.023Z,0
2017-12-28T00:25:44.238Z,0
2017-12-28T00:26:54.499Z,0
2017-12-28T00:28:04.685Z,0
2017-12-28T00:29:14.835Z,0
2017-12-28T00:30:24.974Z,0
2017-12-28T00:31:35.078Z,0
2017-12-28T00:32:45.213Z,0
2017-12-28T00:33:55.345Z,0
2017-12-28T00:35:05.476Z,0
2017-12-28T00:36:15.609Z,0
2017-12-28T00:37:26.016Z,0
2017-12-28T00:38:36.166Z,0
2017-12-28T00:39:46.296Z,0
2017-12-28T00:40:56.409Z,0
2017-12-28T00:42:06.518Z,0
2017-12-28T00:43:16.654Z,0
2017-12-28T00:44:26.818Z,0
2017-12-28T00:45:37.002Z,0
2017-12-28T00:46:47.156Z,0
2017-12-28T00:47:57.249Z,0
2017-12-28T00:49:07.364Z,0
2017-12-28T00:50:17.539Z,0
2017-12-28T00:51:27.402Z,0
2017-12-28T00:52:37.523Z,0
2017-12-28T00:53:47.684Z,0
2017-12-28T00:54:57.840Z,0
2017-12-28T00:56:08.106Z,0
2017-12-28T00:57:18.306Z,0
2017-12-28T00:58:28.704Z,0
2017-12-28T00:59:38.850Z,0
2017-12-28T01:00:48.979Z,0
2017-12-28T01:01:59.180Z,0
2017-12-28T01:03:09.576Z,0
2017-12-28T01:04:19.714Z,0
2017-12-28T01:05:29.824Z,0
2017-12-28T01:06:39.968Z,0
2017-12-28T01:07:50.143Z,0
2017-12-28T01:09:00.239Z,0
2017-12-28T01:10:10.374Z,0
2017-12-28T01:11:20.390Z,0
2017-12-28T01:12:30.570Z,0
2017-12-28T01:13:40.934Z,0
2017-12-28T01:14:50.567Z,0
2017-12-28T01:16:00.420Z,0
2017-12-28T01:17:10.541Z,0
2017-12-28T01:18:20.777Z,0
2017-12-28T01:19:30.879Z,0
2017-12-28T01:20:40.990Z,0
2017-12-28T01:21:51.100Z,0
2017-12-28T01:23:01.250Z,0
2017-12-28T01:24:11.386Z,0
2017-12-28T01:25:21.253Z,0
2017-12-28T01:26:31.432Z,0
2017-12-28T01:27:41.668Z,0
2017-12-28T01:28:51.560Z,0
2017-12-28T01:30:01.674Z,0
2017-12-28T01:31:11.829Z,0
2017-12-28T01:32:21.965Z,0
2017-12-28T01:33:32.121Z,0
2017-12-28T01:34:42.245Z,0
2017-12-28T01:35:51.989Z,0
2017-12-28T01:37:02.112Z,0
2017-12-28T01:38:12.212Z,0
2017-12-28T01:39:22.375Z,0
2017-12-28T01:40:32.617Z,0
2017-12-28T01:41:42.845Z,0
2017-12-28T01:42:52.964Z,0
2017-12-28T01:44:03.109Z,0
2017-12-28T01:45:13.233Z,0
2017-12-28T01:46:23.358Z,0
2017-12-28T01:47:33.467Z,0
2017-12-28T01:48:43.589Z,0
2017-12-28T01:49:53.771Z,0
2017-12-28T01:51:04.077Z,0
2017-12-28T01:52:14.305Z,0
2017-12-28T01:53:24.508Z,0
2017-12-28T01:54:34.628Z,0
2017-12-28T01:55:44.733Z,0
2017-12-28T01:56:54.841Z,0
2017-12-28T01:58:05.018Z,0
2017-12-28T01:59:15.200Z,0
2017-12-28T02:00:25.370Z,0
2017-12-28T02:01:35.254Z,0
2017-12-28T02:02:45.134Z,0
2017-12-28T02:03:55.271Z,0
2017-12-28T02:05:05.398Z,0
2017-12-28T02:06:15.506Z,0
2017-12-28T02:07:25.760Z,0
2017-12-28T02:08:35.648Z,0
2017-12-28T02:09:45.767Z,0
2017-12-28T02:10:55.936Z,0
2017-12-28T02:12:06.099Z,0
2017-12-28T02:13:16.346Z,0
2017-12-28T02:14:26.485Z,0
2017-12-28T02:15:36.588Z,0
2017-12-28T02:16:46.343Z,0
2017-12-28T02:17:56.470Z,0
2017-12-28T02:19:06.575Z,0
2017-12-28T02:20:16.434Z,0
2017-12-28T02:21:26.534Z,0
2017-12-28T02:22:36.749Z,0
2017-12-28T02:23:46.854Z,0
2017-12-28T02:24:56.856Z,0
2017-12-28T02:26:06.956Z,0
2017-12-28T02:27:17.087Z,0
2017-12-28T02:28:27.184Z,0
2017-12-28T02:29:37.323Z,0
2017-12-28T02:30:47.416Z,0
2017-12-28T02:31:57.519Z,0
2017-12-28T02:33:07.807Z,0
2017-12-28T02:34:17.916Z,0
2017-12-28T02:35:28.215Z,0
2017-12-28T02:36:37.994Z,0
2017-12-28T02:37:48.287Z,0
2017-12-28T02:38:58.403Z,0
2017-12-28T02:40:08.538Z,0
2017-12-28T02:41:18.390Z,0
2017-12-28T02:42:28.493Z,0
2017-12-28T02:43:38.614Z,0
2017-12-28T02:44:48.712Z,0
2017-12-28T02:45:58.564Z,0
2017-12-28T02:47:08.670Z,0
2017-12-28T02:48:18.769Z,0
2017-12-28T02:49:28.653Z,0
2017-12-28T02:50:38.796Z,0
2017-12-28T02:51:48.687Z,0
2017-12-28T02:52:58.798Z,0
2017-12-28T02:54:08.644Z,0
2017-12-28T02:55:18.747Z,0
2017-12-28T02:56:28.853Z,0
2017-12-28T02:57:38.956Z,0
2017-12-28T02:58:49.055Z,0
2017-12-28T02:59:59.199Z,0
2017-12-28T03:01:09.294Z,0
2017-12-28T03:02:19.413Z,0
2017-12-28T03:03:29.562Z,0
2017-12-28T03:04:39.734Z,0
2017-12-28T03:05:50.013Z,0
2017-12-28T03:07:00.232Z,0
2017-12-28T03:08:10.081Z,0
2017-12-28T03:09:20.243Z,0
2017-12-28T03:10:30.387Z,0
2017-12-28T03:11:40.493Z,0
2017-12-28T03:12:50.603Z,0
2017-12-28T03:14:00.730Z,0
2017-12-28T03:15:10.855Z,0
2017-12-28T03:16:21.020Z,0
2017-12-28T03:17:31.231Z,0
2017-12-28T03:18:41.528Z,0
2017-12-28T03:19:51.699Z,0
2017-12-28T03:21:01.988Z,0
2017-12-28T03:22:12.110Z,0
2017-12-28T03:23:22.223Z,0
2017-12-28T03:24:32.143Z,0
2017-12-28T03:25:42.242Z,0
2017-12-28T03:26:52.362Z,0
2017-12-28T03:28:02.468Z,0
2017-12-28T03:29:12.568Z,0
2017-12-28T03:30:22.757Z,0
2017-12-28T03:31:32.948Z,0
2017-12-28T03:32:43.142Z,0
2017-12-28T03:33:53.257Z,0
2017-12-28T03:35:03.104Z,0
2017-12-28T03:36:13.208Z,0
2017-12-28T03:37:23.050Z,0
2017-12-28T03:38:33.094Z,0
2017-12-28T03:39:43.216Z,0
2017-12-28T03:40:53.136Z,0
2017-12-28T03:42:03.260Z,0
2017-12-28T03:43:13.358Z,0
2017-12-28T03:44:23.487Z,0
2017-12-28T03:45:33.687Z,0
2017-12-28T03:46:43.628Z,0
2017-12-28T03:47:53.761Z,0
2017-12-28T03:49:03.909Z,0
2017-12-28T03:50:14.071Z,0
2017-12-28T03:51:23.981Z,0
2017-12-28T03:52:34.106Z,0
2017-12-28T03:53:44.273Z,0
2017-12-28T03:54:54.655Z,0
2017-12-28T03:56:04.784Z,0
2017-12-28T03:57:15.944Z,0
2017-12-28T03:58:25.791Z,0
2017-12-28T03:59:35.630Z,0
2017-12-28T04:00:45.732Z,0
2017-12-28T04:01:55.835Z,0
2017-12-28T04:03:06.028Z,0
2017-12-28T04:04:15.887Z,0
2017-12-28T04:05:26.001Z,0
2017-12-28T04:06:36.133Z,0
2017-12-28T04:07:46.339Z,0
2017-12-28T04:08:56.590Z,0
2017-12-28T04:10:06.563Z,0
2017-12-28T04:11:16.721Z,0
2017-12-28T04:12:26.848Z,0
2017-12-28T04:13:37.007Z,0
2017-12-28T04:14:47.148Z,0
2017-12-28T04:15:57.265Z,0
2017-12-28T04:17:07.389Z,0
2017-12-28T04:18:17.530Z,0
2017-12-28T04:19:27.368Z,0
2017-12-28T04:20:37.495Z,0
2017-12-28T04:21:47.599Z,0
2017-12-28T04:22:57.829Z,0
2017-12-28T04:24:08.103Z,0
2017-12-28T04:25:18.264Z,0
2017-12-28T04:26:28.402Z,0
2017-12-28T04:27:38.516Z,0
2017-12-28T04:28:48.336Z,0
2017-12-28T04:29:58.433Z,0
2017-12-28T04:31:08.372Z,0
2017-12-28T04:32:18.119Z,0
2017-12-28T04:33:28.295Z,0
2017-12-28T04:34:38.482Z,0
2017-12-28T04:35:48.571Z,0
2017-12-28T04:36:58.181Z,0
2017-12-28T04:38:08.021Z,0
2017-12-28T04:39:18.166Z,0
2017-12-28T04:40:29.240Z,0
2017-12-28T04:41:39.180Z,0
2017-12-28T04:42:49.312Z,0
2017-12-28T04:43:59.432Z,0
2017-12-28T04:45:09.534Z,0
2017-12-28T04:46:19.682Z,0
2017-12-28T04:47:29.792Z,0
2017-12-28T04:48:39.904Z,0
2017-12-28T04:49:49.808Z,0
2017-12-28T04:50:59.571Z,0
2017-12-28T04:52:09.697Z,0
2017-12-28T04:53:19.446Z,0
2017-12-28T04:54:29.641Z,0
2017-12-28T04:55:39.838Z,0
2017-12-28T04:56:49.602Z,0
2017-12-28T04:57:59.707Z,0
2017-12-28T04:59:09.925Z,0
2017-12-28T05:00:19.689Z,0
2017-12-28T05:01:29.823Z,0
2017-12-28T05:02:39.925Z,0
2017-12-28T05:03:49.787Z,0
2017-12-28T05:04:59.639Z,0
2017-12-28T05:06:09.532Z,0
2017-12-28T05:07:19.414Z,0
2017-12-28T05:08:29.284Z,0
2017-12-28T05:09:39.399Z,0
2017-12-28T05:10:49.492Z,0
2017-12-28T05:11:59.598Z,0
2017-12-28T05:13:09.468Z,0
2017-12-28T05:14:19.578Z,0
2017-12-28T05:15:29.713Z,0
2017-12-28T05:16:39.867Z,0
2017-12-28T05:17:49.982Z,0
2017-12-28T05:19:00.083Z,0
2017-12-28T05:20:09.953Z,0
2017-12-28T05:21:20.180Z,0
2017-12-28T05:22:30.389Z,0
2017-12-28T05:23:40.654Z,0
2017-12-28T05:24:50.863Z,0
2017-12-28T05:26:01.094Z,0
2017-12-28T05:27:11.232Z,0
2017-12-28T05:28:21.359Z,0
2017-12-28T05:29:31.494Z,0
2017-12-28T05:30:41.344Z,0
2017-12-28T05:31:51.452Z,0
2017-12-28T05:33:01.558Z,0
2017-12-28T05:34:11.678Z,0
2017-12-28T05:35:21.598Z,0
2017-12-28T05:36:31.462Z,0
2017-12-28T05:37:42.535Z,0
2017-12-28T05:38:52.638Z,0
2017-12-28T05:40:02.480Z,0
2017-12-28T05:41:12.473Z,0
2017-12-28T05:42:22.235Z,0
2017-12-28T05:43:32.442Z,0
2017-12-28T05:44:42.723Z,0
2017-12-28T05:45:52.904Z,0
2017-12-28T05:47:03.155Z,0
2017-12-28T05:48:12.999Z,0
2017-12-28T05:49:23.193Z,0
2017-12-28T05:50:33.295Z,0
2017-12-28T05:51:42.894Z,0
2017-12-28T05:52:53.073Z,0
2017-12-28T05:54:02.953Z,0
2017-12-28T05:55:12.924Z,0
2017-12-28T05:56:23.020Z,0
2017-12-28T05:57:33.266Z,0
2017-12-28T05:58:43.084Z,0
2017-12-28T05:59:53.190Z,0
2017-12-28T06:01:03.297Z,0
2017-12-28T06:02:13.389Z,0
2017-12-28T06:03:23.230Z,0
2017-12-28T06:04:33.074Z,0
2017-12-28T06:05:43.224Z,0
2017-12-28T06:06:53.071Z,0
2017-12-28T06:08:02.922Z,0
2017-12-28T06:09:13.058Z,0
2017-12-28T06:10:23.170Z,0
2017-12-28T06:11:33.316Z,0
2017-12-28T06:12:43.179Z,0
2017-12-28T06:13:53.031Z,0
2017-12-28T06:15:03.153Z,0
2017-12-28T06:16:13.297Z,0
2017-12-28T06:17:23.433Z,0
2017-12-28T06:18:33.282Z,0
2017-12-28T06:19:43.550Z,0
2017-12-28T06:20:53.816Z,0
2017-12-28T06:22:03.941Z,0
2017-12-28T06:23:13.864Z,0
2017-12-28T06:24:24.021Z,0
2017-12-28T06:25:34.135Z,0
2017-12-28T06:26:44.226Z,0
2017-12-28T06:27:54.576Z,0
2017-12-28T06:29:04.759Z,0
2017-12-28T06:30:14.945Z,0
2017-12-28T06:31:25.139Z,0
2017-12-28T06:32:35.261Z,0
2017-12-28T06:33:45.364Z,0
2017-12-28T06:34:55.497Z,0
2017-12-28T06:36:05.682Z,0
2017-12-28T06:37:15.442Z,0
2017-12-28T06:38:25.608Z,0
2017-12-28T06:39:35.850Z,0
2017-12-28T06:40:46.076Z,0
2017-12-28T06:41:56.326Z,0
2017-12-28T06:43:06.456Z,0
2017-12-28T06:44:16.652Z,0
2017-12-28T06:45:26.828Z,0
2017-12-28T06:46:36.932Z,0
2017-12-28T06:47:46.789Z,0
2017-12-28T06:48:57.040Z,0
2017-12-28T06:50:07.290Z,0
2017-12-28T06:51:17.450Z,0
2017-12-28T06:52:27.441Z,0
2017-12-28T06:53:37.578Z,0
2017-12-28T06:54:47.752Z,4
2017-12-28T06:55:57.910Z,4
2017-12-28T06:57:07.764Z,0
2017-12-28T06:58:17.876Z,4
2017-12-28T06:59:28.152Z,4
2017-12-28T07:00:38.349Z,4
2017-12-28T07:01:48.226Z,8
2017-12-28T07:02:58.366Z,4
2017-12-28T07:04:08.230Z,8
2017-12-28T07:05:18.379Z,8
2017-12-28T07:06:28.486Z,12
2017-12-28T07:07:38.087Z,16
2017-12-28T07:08:48.248Z,16
2017-12-28T07:09:58.087Z,20
2017-12-28T07:11:08.214Z,28
2017-12-28T07:12:18.314Z,36
2017-12-28T07:13:28.166Z,40
2017-12-28T07:14:38.268Z,40
2017-12-28T07:15:48.380Z,44
2017-12-28T07:16:58.494Z,48
2017-12-28T07:18:08.802Z,48
2017-12-28T07:19:18.977Z,48
2017-12-28T07:20:29.118Z,56
2017-12-28T07:21:39.209Z,72
2017-12-28T07:22:49.327Z,84
2017-12-28T07:24:00.414Z,92
2017-12-28T07:25:10.633Z,104
2017-12-28T07:26:20.783Z,112
2017-12-28T07:27:30.953Z,124
2017-12-28T07:28:41.150Z,128
2017-12-28T07:29:51.301Z,140
2017-12-28T07:31:01.416Z,152
2017-12-28T07:32:11.151Z,160
2017-12-28T07:33:21.269Z,172
2017-12-28T07:34:31.119Z,184
2017-12-28T07:35:41.274Z,192
2017-12-28T07:36:51.372Z,208
2017-12-28T07:38:01.577Z,216
2017-12-28T07:39:11.860Z,232
2017-12-28T07:40:21.972Z,244
2017-12-28T07:41:32.193Z,260
2017-12-28T07:42:42.438Z,280
2017-12-28T07:43:52.638Z,308
2017-12-28T07:45:02.852Z,332
2017-12-28T07:46:13.087Z,360
2017-12-28T07:47:23.313Z,396
2017-12-28T07:48:33.618Z,428
2017-12-28T07:49:43.505Z,468
2017-12-28T07:50:53.607Z,508
2017-12-28T07:52:03.748Z,544
2017-12-28T07:53:13.998Z,580
2017-12-28T07:54:24.201Z,608
2017-12-28T07:55:34.350Z,632
2017-12-28T07:56:44.604Z,640
2017-12-28T07:57:54.725Z,640
2017-12-28T07:59:04.976Z,636
2017-12-28T08:00:15.121Z,636
2017-12-28T08:01:25.222Z,664
2017-12-28T08:02:35.328Z,708
2017-12-28T08:03:45.442Z,744
2017-12-28T08:04:55.719Z,780
2017-12-28T08:06:05.926Z,812
2017-12-28T08:07:15.766Z,848
2017-12-28T08:08:25.603Z,884
2017-12-28T08:09:35.716Z,920
2017-12-28T08:10:45.845Z,952
2017-12-28T08:11:56.089Z,996
2017-12-28T08:13:06.231Z,1052
2017-12-28T08:14:16.458Z,1112
2017-12-28T08:15:26.683Z,1164
2017-12-28T08:16:36.927Z,1192
2017-12-28T08:17:47.155Z,1204
2017-12-28T08:18:57.279Z,1196
2017-12-28T08:20:07.177Z,1188
2017-12-28T08:21:17.311Z,1176
2017-12-28T08:22:27.238Z,1172
2017-12-28T08:23:37.408Z,1200
2017-12-28T08:24:47.307Z,1236
2017-12-28T08:25:57.416Z,1280
2017-12-28T08:27:07.668Z,1328
2017-12-28T08:28:17.769Z,1380
2017-12-28T08:29:27.883Z,1428
2017-12-28T08:30:38.006Z,1452
2017-12-28T08:31:48.165Z,1452
2017-12-28T08:32:58.290Z,1440
2017-12-28T08:34:08.203Z,1444
2017-12-28T08:35:18.337Z,1476
2017-12-28T08:36:28.440Z,1524
2017-12-28T08:37:38.285Z,1572
2017-12-28T08:38:48.393Z,1612
2017-12-28T08:39:58.515Z,1648
2017-12-28T08:41:08.665Z,1676
2017-12-28T08:42:18.924Z,1712
2017-12-28T08:43:29.093Z,1744
2017-12-28T08:44:38.697Z,1776
2017-12-28T08:45:48.823Z,1816
2017-12-28T08:46:58.974Z,1872
2017-12-28T08:48:09.093Z,1936
2017-12-28T08:49:19.229Z,2016
2017-12-28T08:50:29.570Z,2080
2017-12-28T08:51:39.593Z,2072
2017-12-28T08:52:49.691Z,2224
2017-12-28T08:53:59.805Z,2232
2017-12-28T08:55:09.939Z,2364
2017-12-28T08:56:20.161Z,2480
2017-12-28T08:57:30.418Z,2688
2017-12-28T08:58:40.601Z,2876
2017-12-28T08:59:50.740Z,3036
2017-12-28T09:01:01.026Z,3176
2017-12-28T09:02:10.769Z,3296
2017-12-28T09:03:20.940Z,3416
2017-12-28T09:04:32.024Z,3512
2017-12-28T09:05:41.867Z,3556
2017-12-28T09:06:51.975Z,3556
2017-12-28T09:08:02.118Z,3552
2017-12-28T09:09:12.226Z,3572
2017-12-28T09:10:22.150Z,3616
2017-12-28T09:11:32.084Z,3680
2017-12-28T09:12:41.972Z,3732
2017-12-28T09:13:52.088Z,3764
2017-12-28T09:15:02.214Z,3724
2017-12-28T09:16:12.390Z,3712
2017-12-28T09:17:22.357Z,3712
2017-12-28T09:18:32.487Z,3828
2017-12-28T09:19:42.357Z,3804
2017-12-28T09:20:52.456Z,3336
2017-12-28T09:22:02.658Z,3600
2017-12-28T09:23:12.784Z,3336
2017-12-28T09:24:22.944Z,3368
2017-12-28T09:25:33.200Z,3316
2017-12-28T09:26:43.339Z,3492
2017-12-28T09:27:54.432Z,3296
2017-12-28T09:29:04.578Z,3180
2017-12-28T09:30:14.687Z,3252
2017-12-28T09:31:24.822Z,3256
2017-12-28T09:32:34.981Z,2968
2017-12-28T09:33:45.151Z,2540
2017-12-28T09:34:55.301Z,2536
2017-12-28T09:36:05.417Z,2748
2017-12-28T09:37:15.348Z,2368
2017-12-28T09:38:25.480Z,2864
2017-12-28T09:39:35.590Z,2700
2017-12-28T09:40:45.726Z,2480
2017-12-28T09:41:55.866Z,2336
2017-12-28T09:43:06.122Z,2536
2017-12-28T09:44:16.361Z,2680
2017-12-28T09:45:26.510Z,2392
2017-12-28T09:46:36.620Z,2320
2017-12-28T09:47:46.501Z,2864
2017-12-28T09:48:56.659Z,3372
2017-12-28T09:50:06.824Z,3108
2017-12-28T09:51:16.938Z,3336
2017-12-28T09:52:27.075Z,3876
2017-12-28T09:53:37.187Z,4168
2017-12-28T09:54:47.487Z,4264
2017-12-28T09:55:57.361Z,4384
2017-12-28T09:57:07.485Z,4520
2017-12-28T09:58:17.600Z,4588
2017-12-28T09:59:27.727Z,4660
2017-12-28T10:00:37.950Z,4744
2017-12-28T10:01:48.130Z,4844
2017-12-28T10:02:58.376Z,4964
2017-12-28T10:04:08.565Z,5060
2017-12-28T10:05:18.775Z,5124
2017-12-28T10:06:29.052Z,5144
2017-12-28T10:07:40.163Z,5144
2017-12-28T10:08:50.105Z,5132
2017-12-28T10:10:00.254Z,5124
2017-12-28T10:11:10.442Z,5136
2017-12-28T10:12:20.554Z,5140
2017-12-28T10:13:30.663Z,5160
2017-12-28T10:14:40.767Z,5208
2017-12-28T10:15:50.915Z,5276
2017-12-28T10:17:01.040Z,5364
2017-12-28T10:18:11.197Z,5440
2017-12-28T10:19:21.428Z,5484
2017-12-28T10:20:31.555Z,5496
2017-12-28T10:21:41.684Z,5496
2017-12-28T10:22:51.825Z,5504
2017-12-28T10:24:01.968Z,5516
2017-12-28T10:25:12.085Z,5524
2017-12-28T10:26:22.348Z,5548
2017-12-28T10:27:32.580Z,5564
2017-12-28T10:28:42.801Z,5580
2017-12-28T10:29:53.036Z,5560
2017-12-28T10:31:03.218Z,5504
2017-12-28T10:32:13.504Z,5432
2017-12-28T10:33:23.661Z,5332
2017-12-28T10:34:33.903Z,5232
2017-12-28T10:35:45.115Z,5136
2017-12-28T10:36:55.305Z,5072
2017-12-28T10:38:05.467Z,5048
2017-12-28T10:39:15.626Z,5044
2017-12-28T10:40:25.749Z,5072
2017-12-28T10:41:35.649Z,5092
2017-12-28T10:42:45.833Z,5084
2017-12-28T10:43:55.959Z,5024
2017-12-28T10:45:06.069Z,5004
2017-12-28T10:46:16.206Z,5008
2017-12-28T10:47:26.413Z,4968
2017-12-28T10:48:36.551Z,4988
2017-12-28T10:49:46.935Z,4960
2017-12-28T10:50:57.132Z,4884
2017-12-28T10:52:07.273Z,4644
2017-12-28T10:53:17.479Z,4408
2017-12-28T10:54:27.371Z,4264
2017-12-28T10:55:37.517Z,4164
2017-12-28T10:56:47.624Z,3912
2017-12-28T10:57:57.780Z,3832
2017-12-28T10:59:07.930Z,4256
2017-12-28T11:00:18.114Z,4320
2017-12-28T11:01:28.058Z,4340
2017-12-28T11:02:38.210Z,4064
2017-12-28T11:03:48.337Z,3948
2017-12-28T11:04:58.745Z,3972
2017-12-28T11:06:08.897Z,4280
2017-12-28T11:07:19.180Z,4064
2017-12-28T11:08:29.063Z,4028
2017-12-28T11:09:39.188Z,4124
2017-12-28T11:10:48.889Z,4328
2017-12-28T11:11:59.998Z,4368
2017-12-28T11:13:10.150Z,4608
2017-12-28T11:14:21.382Z,4336
2017-12-28T11:15:31.559Z,4492
2017-12-28T11:16:41.781Z,4484
2017-12-28T11:17:51.945Z,4632
2017-12-28T11:19:02.056Z,4968
2017-12-28T11:20:12.194Z,5104
2017-12-28T11:21:22.334Z,5076
2017-12-28T11:22:32.524Z,5232
2017-12-28T11:23:42.688Z,5312
2017-12-28T11:24:52.892Z,5372
2017-12-28T11:26:03.076Z,5408
2017-12-28T11:27:13.122Z,5476
2017-12-28T11:28:23.286Z,5528
2017-12-28T11:29:33.179Z,5512
2017-12-28T11:30:43.339Z,5456
2017-12-28T11:31:53.496Z,5400
2017-12-28T11:33:03.610Z,5348
2017-12-28T11:34:13.737Z,5308
2017-12-28T11:35:23.924Z,5308
2017-12-28T11:36:34.227Z,5328
2017-12-28T11:37:44.419Z,5360
2017-12-28T11:38:54.612Z,5396
2017-12-28T11:40:04.929Z,5416
2017-12-28T11:41:15.128Z,5440
2017-12-28T11:42:25.001Z,5484
2017-12-28T11:43:35.149Z,5520
2017-12-28T11:44:45.314Z,5540
2017-12-28T11:45:55.468Z,5520
2017-12-28T11:47:05.359Z,5500
2017-12-28T11:48:15.518Z,5476
2017-12-28T11:49:25.667Z,5436
2017-12-28T11:50:35.778Z,5416
2017-12-28T11:51:45.952Z,5392
2017-12-28T11:52:56.076Z,5388
2017-12-28T11:54:06.215Z,5408
2017-12-28T11:55:16.346Z,5448
2017-12-28T11:56:26.505Z,5472
2017-12-28T11:57:36.398Z,5508
2017-12-28T11:58:46.538Z,5604
2017-12-28T11:59:56.657Z,5700
2017-12-28T12:01:06.921Z,5752
2017-12-28T12:02:17.074Z,5884
2017-12-28T12:03:26.932Z,5976
2017-12-28T12:04:37.777Z,6076
2017-12-28T12:05:47.897Z,6156
2017-12-28T12:06:58.047Z,6236
2017-12-28T12:08:08.216Z,6328
2017-12-28T12:09:18.653Z,6356
2017-12-28T12:10:28.774Z,6384
2017-12-28T12:11:39.043Z,6420
2017-12-28T12:12:49.220Z,6408
2017-12-28T12:13:59.357Z,6360
2017-12-28T12:15:09.497Z,6316
2017-12-28T12:16:19.656Z,6288
2017-12-28T12:17:29.783Z,6252
2017-12-28T12:18:39.919Z,6248
2017-12-28T12:19:50.176Z,6240
2017-12-28T12:21:00.338Z,6216
2017-12-28T12:22:10.460Z,6168
2017-12-28T12:23:20.645Z,6100
2017-12-28T12:24:30.912Z,6116
2017-12-28T12:25:41.054Z,6088
2017-12-28T12:26:50.836Z,5956
2017-12-28T12:28:01.067Z,5692
2017-12-28T12:29:11.266Z,5368
2017-12-28T12:30:21.451Z,4976
2017-12-28T12:31:31.671Z,4348
2017-12-28T12:32:41.839Z,4744
2017-12-28T12:33:52.237Z,5432
2017-12-28T12:35:02.478Z,5636
2017-12-28T12:36:12.363Z,5592
2017-12-28T12:37:22.480Z,5432
2017-12-28T12:38:32.323Z,5200
2017-12-28T12:39:42.310Z,5228
2017-12-28T12:40:52.509Z,5416
2017-12-28T12:42:02.692Z,5868
2017-12-28T12:43:12.998Z,6140
2017-12-28T12:44:23.154Z,6264
2017-12-28T12:45:33.367Z,6288
2017-12-28T12:46:43.571Z,6436
2017-12-28T12:47:53.205Z,6480
2017-12-28T12:49:03.368Z,6504
2017-12-28T12:50:13.286Z,6496
2017-12-28T12:51:24.409Z,6592
2017-12-28T12:52:35.574Z,6716
2017-12-28T12:53:45.684Z,6780
2017-12-28T12:54:56.797Z,6752
2017-12-28T12:56:07.037Z,6660
2017-12-28T12:57:17.176Z,6560
2017-12-28T12:58:27.307Z,6480
2017-12-28T12:59:37.549Z,6336
2017-12-28T13:00:47.790Z,6344
2017-12-28T13:01:57.944Z,6300
2017-12-28T13:03:08.551Z,6220
2017-12-28T13:04:18.691Z,6088
2017-12-28T13:05:28.831Z,6020
2017-12-28T13:06:38.485Z,5856
2017-12-28T13:07:48.663Z,5668
2017-12-28T13:08:58.794Z,5532
2017-12-28T13:10:08.446Z,5512
2017-12-28T13:11:18.638Z,5480
2017-12-28T13:12:28.566Z,5408
2017-12-28T13:13:38.714Z,5280
2017-12-28T13:14:48.847Z,5200
2017-12-28T13:15:58.996Z,5128
2017-12-28T13:17:09.226Z,5060
2017-12-28T13:18:19.379Z,5020
2017-12-28T13:19:29.531Z,4928
2017-12-28T13:20:39.688Z,4804
2017-12-28T13:21:49.835Z,4672
2017-12-28T13:22:59.975Z,4516
2017-12-28T13:24:10.179Z,4420
2017-12-28T13:25:20.294Z,4388
2017-12-28T13:26:30.457Z,4452
2017-12-28T13:27:40.589Z,4512
2017-12-28T13:28:50.719Z,4520
2017-12-28T13:30:00.905Z,4420
2017-12-28T13:31:11.132Z,4240
2017-12-28T13:32:22.228Z,4136
2017-12-28T13:33:32.491Z,4136
2017-12-28T13:34:42.682Z,4188
2017-12-28T13:35:52.932Z,4180
2017-12-28T13:37:03.132Z,4180
2017-12-28T13:38:13.412Z,4160
2017-12-28T13:39:23.536Z,4220
2017-12-28T13:40:33.700Z,4232
2017-12-28T13:41:43.826Z,4204
2017-12-28T13:42:53.937Z,4100
2017-12-28T13:44:03.856Z,3964
2017-12-28T13:45:13.961Z,3812
2017-12-28T13:46:24.080Z,3660
2017-12-28T13:47:34.211Z,3504
2017-12-28T13:48:44.358Z,3356
2017-12-28T13:49:54.373Z,3276
2017-12-28T13:51:04.578Z,3256
2017-12-28T13:52:14.714Z,3268
2017-12-28T13:53:24.601Z,3320
2017-12-28T13:54:34.733Z,3352
2017-12-28T13:55:44.903Z,3376
2017-12-28T13:56:55.024Z,3384
2017-12-28T13:58:05.296Z,3440
2017-12-28T13:59:16.466Z,3500
2017-12-28T14:00:26.618Z,3576
2017-12-28T14:01:36.737Z,3624
2017-12-28T14:02:46.882Z,3632
2017-12-28T14:03:56.996Z,3628
2017-12-28T14:05:07.128Z,3456
2017-12-28T14:06:16.909Z,3396
2017-12-28T14:07:27.097Z,3388
2017-12-28T14:08:37.250Z,3384
2017-12-28T14:09:47.477Z,3432
2017-12-28T14:10:57.680Z,3432
2017-12-28T14:12:07.847Z,3384
2017-12-28T14:13:17.994Z,3260
2017-12-28T14:14:28.166Z,3156
2017-12-28T14:15:38.300Z,3144
2017-12-28T14:16:48.441Z,3180
2017-12-28T14:17:58.389Z,3196
2017-12-28T14:19:08.578Z,3112
2017-12-28T14:20:18.711Z,2984
2017-12-28T14:21:28.852Z,2836
2017-12-28T14:22:39.009Z,2692
2017-12-28T14:23:50.137Z,2576
2017-12-28T14:25:00.018Z,2548
2017-12-28T14:26:10.184Z,2544
2017-12-28T14:27:20.411Z,2556
2017-12-28T14:28:30.572Z,2576
2017-12-28T14:29:40.467Z,2568
2017-12-28T14:30:50.595Z,2500
2017-12-28T14:32:00.789Z,2396
2017-12-28T14:33:10.978Z,2264
2017-12-28T14:34:20.857Z,2140
2017-12-28T14:35:31.099Z,2020
2017-12-28T14:36:41.238Z,1892
2017-12-28T14:37:51.421Z,1764
2017-12-28T14:39:01.591Z,1648
2017-12-28T14:40:11.710Z,1592
2017-12-28T14:41:21.585Z,1508
2017-12-28T14:42:31.781Z,1388
2017-12-28T14:43:41.956Z,1240
2017-12-28T14:44:51.888Z,1148
2017-12-28T14:46:02.028Z,1068
2017-12-28T14:47:12.187Z,996
2017-12-28T14:48:22.117Z,932
2017-12-28T14:49:32.247Z,860
2017-12-28T14:50:42.378Z,776
2017-12-28T14:51:52.266Z,688
2017-12-28T14:53:02.446Z,608
2017-12-28T14:54:12.350Z,536
2017-12-28T14:55:22.257Z,476
2017-12-28T14:56:32.505Z,432
2017-12-28T14:57:42.789Z,400
2017-12-28T14:58:52.661Z,376
2017-12-28T15:00:02.817Z,344
2017-12-28T15:01:12.931Z,324
2017-12-28T15:02:23.216Z,308
2017-12-28T15:03:33.340Z,292
2017-12-28T15:04:43.471Z,272
2017-12-28T15:05:53.149Z,256
2017-12-28T15:07:03.401Z,244
2017-12-28T15:08:13.654Z,224
2017-12-28T15:09:23.879Z,204
2017-12-28T15:10:34.097Z,188
2017-12-28T15:11:43.973Z,168
2017-12-28T15:12:53.852Z,152
2017-12-28T15:14:04.004Z,136
2017-12-28T15:15:14.225Z,120
2017-12-28T15:16:24.385Z,108
2017-12-28T15:17:34.581Z,96
2017-12-28T15:18:44.772Z,88
2017-12-28T15:19:54.768Z,76
2017-12-28T15:21:04.884Z,68
2017-12-28T15:22:15.050Z,60
2017-12-28T15:23:25.277Z,48
2017-12-28T15:24:35.435Z,44
2017-12-28T15:25:45.569Z,40
2017-12-28T15:26:55.721Z,28
2017-12-28T15:28:05.846Z,28
2017-12-28T15:29:16.073Z,20
2017-12-28T15:30:26.227Z,16
2017-12-28T15:31:36.428Z,16
2017-12-28T15:32:46.598Z,16
2017-12-28T15:33:56.727Z,12
2017-12-28T15:35:06.924Z,12
2017-12-28T15:36:17.084Z,8
2017-12-28T15:37:27.271Z,8
2017-12-28T15:38:37.171Z,4
2017-12-28T15:39:47.324Z,4
2017-12-28T15:40:57.521Z,4
2017-12-28T15:42:07.700Z,4
2017-12-28T15:43:18.093Z,0
2017-12-28T15:44:28.257Z,4
2017-12-28T15:45:38.418Z,0
2017-12-28T15:46:48.338Z,4
2017-12-28T15:47:58.251Z,0
2017-12-28T15:49:08.703Z,4
2017-12-28T15:50:18.482Z,4
2017-12-28T15:51:28.385Z,0
2017-12-28T15:52:38.783Z,0
2017-12-28T15:53:48.927Z,0
2017-12-28T15:54:59.081Z,0
2017-12-28T15:56:09.217Z,0
2017-12-28T15:57:19.362Z,0
2017-12-28T15:58:29.310Z,0
2017-12-28T15:59:39.576Z,0
2017-12-28T16:00:49.762Z,0
2017-12-28T16:01:59.896Z,0
2017-12-28T16:03:10.029Z,0
2017-12-28T16:04:20.177Z,0
2017-12-28T16:05:30.321Z,0
2017-12-28T16:06:40.180Z,0
2017-12-28T16:07:50.305Z,0
2017-12-28T16:09:00.489Z,0
2017-12-28T16:10:10.656Z,0
2017-12-28T16:11:21.022Z,0
2017-12-28T16:12:30.920Z,0
2017-12-28T16:13:41.062Z,0
2017-12-28T16:14:50.957Z,0
2017-12-28T16:16:01.136Z,0
2017-12-28T16:17:11.284Z,0
2017-12-28T16:18:21.414Z,0
2017-12-28T16:19:31.536Z,0
2017-12-28T16:20:41.676Z,0
2017-12-28T16:21:51.881Z,0
2017-12-28T16:23:01.754Z,0
2017-12-28T16:24:11.913Z,0
2017-12-28T16:25:22.102Z,0